createdAt,value
2022-08-11T00:01:15.577Z,54.15
2022-08-11T00:03:50.247Z,54.79
2022-08-11T00:06:28.473Z,54.90
2022-08-11T00:08:57.907Z,54.96
2022-08-11T00:11:35.603Z,54.57
2022-08-11T00:14:06.427Z,54.83
2022-08-11T00:16:35.842Z,55.12
2022-08-11T00:19:04.475Z,55.38
2022-08-11T00:22:05.379Z,55.78
2022-08-11T00:24:53.438Z,56.56
2022-08-11T00:27:33.603Z,55.51
2022-08-11T00:30:04.651Z,56.25
2022-08-11T00:32:33.937Z,57.13
2022-08-11T00:35:54.655Z,57.16
2022-08-11T00:37:58.854Z,56.98
2022-08-11T00:40:38.866Z,56.68
2022-08-11T00:43:20.870Z,57.08
2022-08-11T00:46:12.885Z,57.64
2022-08-11T00:48:50.924Z,57.38
2022-08-11T00:52:05.174Z,57.08
2022-08-11T00:55:01.059Z,57.38
2022-08-11T00:58:21.782Z,57.70
2022-08-11T01:01:09.394Z,57.21
2022-08-11T01:04:01.109Z,57.46
2022-08-11T01:07:02.193Z,58.16
2022-08-11T01:09:50.591Z,58.58
2022-08-11T01:12:42.420Z,59.41
2022-08-11T01:15:35.411Z,59.37
2022-08-11T01:18:42.322Z,59.47
2022-08-11T01:21:45.689Z,58.78
2022-08-11T01:25:04.367Z,59.86
2022-08-11T01:28:15.435Z,61.26
2022-08-11T01:31:21.253Z,60.92
2022-08-11T01:34:34.073Z,62.58
2022-08-11T01:37:31.582Z,62.90
2022-08-11T01:40:26.174Z,63.28
2022-08-11T01:43:46.566Z,63.73
2022-08-11T01:46:18.574Z,65.52
2022-08-11T01:50:06.742Z,65.29
2022-08-11T01:52:15.363Z,65.11
2022-08-11T01:54:57.949Z,66.11
2022-08-11T01:57:37.535Z,66.26
2022-08-11T02:00:14.679Z,66.72
2022-08-11T02:02:55.665Z,66.79
2022-08-11T02:06:02.705Z,67.33
2022-08-11T02:08:50.715Z,67.23
2022-08-11T02:11:37.778Z,68.26
2022-08-11T02:14:16.910Z,69.05
2022-08-11T02:16:54.643Z,70.16
2022-08-11T02:19:46.066Z,70.10
2022-08-11T02:22:42.390Z,71.06
2022-08-11T02:25:19.345Z,71.30
2022-08-11T02:27:54.394Z,72.34
2022-08-11T02:30:27.705Z,72.88
2022-08-11T02:33:25.339Z,73.27
2022-08-11T02:36:02.980Z,74.06
2022-08-11T02:38:43.529Z,74.18
2022-08-11T02:41:35.369Z,74.88
2022-08-11T02:44:18.626Z,74.71
2022-08-11T02:46:56.738Z,75.18
2022-08-11T02:50:06.579Z,75.75
2022-08-11T02:52:42.382Z,76.96
2022-08-11T02:55:48.978Z,77.05
2022-08-11T02:58:27.968Z,77.32
2022-08-11T03:01:11.781Z,76.86
2022-08-11T03:03:51.649Z,76.46
2022-08-11T03:06:36.954Z,76.91
2022-08-11T03:09:14.586Z,77.83
2022-08-11T03:12:15.326Z,79.04
2022-08-11T03:15:09.167Z,79.77
2022-08-11T03:17:52.711Z,81.13
2022-08-11T03:20:38.066Z,81.41
2022-08-11T03:23:20.154Z,81.99
2022-08-11T03:26:00.143Z,83.03
2022-08-11T03:28:33.875Z,83.50
2022-08-11T03:31:21.022Z,84.36
2022-08-11T03:34:06.837Z,84.49
2022-08-11T03:37:16.528Z,85.17
2022-08-11T03:39:57.441Z,85.13
2022-08-11T03:42:34.014Z,84.79
2022-08-11T03:45:18.212Z,86.39
2022-08-11T03:47:59.319Z,87.15
2022-08-11T03:50:44.212Z,86.25
2022-08-11T03:53:20.328Z,86.32
2022-08-11T03:56:24.015Z,87.40
2022-08-11T03:59:21.702Z,87.50
2022-08-11T04:02:19.350Z,87.77
2022-08-11T04:05:21.598Z,87.99
2022-08-11T04:08:34.674Z,88.17
2022-08-11T04:11:36.822Z,88.26
2022-08-11T04:15:00.122Z,87.77
2022-08-11T04:18:01.495Z,87.94
2022-08-11T04:20:53.122Z,87.96
2022-08-11T04:24:36.254Z,87.30
2022-08-11T04:27:19.198Z,88.08
2022-08-11T04:30:05.497Z,88.68
2022-08-11T04:33:07.549Z,89.29
2022-08-11T04:35:50.747Z,89.65
2022-08-11T04:39:00.112Z,90.52
2022-08-11T04:42:31.001Z,91.17
2022-08-11T04:45:30.151Z,92.18
2022-08-11T04:48:42.075Z,91.72
2022-08-11T04:51:50.778Z,91.61
2022-08-11T04:54:47.852Z,92.81
2022-08-11T04:57:42.554Z,91.29
2022-08-11T05:00:32.924Z,91.52
2022-08-11T05:03:31.488Z,91.04
2022-08-11T05:06:33.465Z,91.87
2022-08-11T05:09:46.636Z,92.47
2022-08-11T05:12:37.717Z,91.66
2022-08-11T05:15:29.112Z,91.57
2022-08-11T05:18:19.280Z,92.37
2022-08-11T05:21:09.696Z,92.63
2022-08-11T05:24:00.818Z,93.08
2022-08-11T05:26:55.162Z,92.30
2022-08-11T05:29:55.040Z,91.37
2022-08-11T05:32:42.841Z,89.88
2022-08-11T05:35:59.744Z,88.86
2022-08-11T05:38:20.224Z,88.21
2022-08-11T05:41:08.197Z,88.84
2022-08-11T05:44:20.424Z,89.64
2022-08-11T05:47:07.119Z,89.12
2022-08-11T05:49:53.861Z,89.58
2022-08-11T05:52:42.166Z,88.70
2022-08-11T05:55:30.262Z,88.44
2022-08-11T05:58:02.545Z,88.10
2022-08-11T06:00:32.744Z,87.43
2022-08-11T06:03:07.656Z,86.85
2022-08-11T06:05:44.043Z,86.51
2022-08-11T06:08:14.002Z,86.74
2022-08-11T06:10:44.483Z,85.36
2022-08-11T06:13:17.648Z,83.30
2022-08-11T06:15:47.434Z,82.31
2022-08-11T06:18:17.517Z,81.58
2022-08-11T06:20:51.672Z,81.71
2022-08-11T06:23:24.173Z,81.04
2022-08-11T06:28:32.558Z,79.92
2022-08-11T06:31:02.414Z,78.76
2022-08-11T06:33:47.876Z,76.53
2022-08-11T06:36:25.394Z,73.51
2022-08-11T06:39:03.741Z,72.87
2022-08-11T06:41:39.690Z,74.36
2022-08-11T06:44:22.491Z,74.39
2022-08-11T06:46:56.439Z,73.05
2022-08-11T06:49:53.026Z,72.89
2022-08-11T06:52:34.288Z,72.23
2022-08-11T06:55:57.895Z,72.47
2022-08-11T06:58:18.248Z,71.01
2022-08-11T07:00:48.859Z,71.42
2022-08-11T07:03:20.769Z,70.39
2022-08-11T07:05:55.763Z,70.34
2022-08-11T07:09:34.691Z,68.50
2022-08-11T07:12:37.997Z,67.41
2022-08-11T07:16:11.703Z,65.56
2022-08-11T07:18:41.203Z,64.00
2022-08-11T07:22:01.757Z,64.44
2022-08-11T07:24:59.401Z,63.79
2022-08-11T07:28:09.206Z,62.26
2022-08-11T07:30:43.056Z,61.20
2022-08-11T07:34:05.806Z,61.57
2022-08-11T07:36:15.090Z,59.91
2022-08-11T07:38:51.449Z,59.37
2022-08-11T07:41:21.372Z,58.24
2022-08-11T07:43:53.969Z,56.94
2022-08-11T07:46:42.645Z,57.04
2022-08-11T07:49:29.781Z,57.43
2022-08-11T07:52:17.091Z,57.33
2022-08-11T07:54:47.341Z,56.24
2022-08-11T07:58:10.233Z,53.71
2022-08-11T08:00:42.877Z,53.71
2022-08-11T08:03:33.336Z,52.60
2022-08-11T08:06:35.916Z,51.88
2022-08-11T08:09:26.324Z,50.08
2022-08-11T08:12:12.207Z,48.21
2022-08-11T08:14:57.950Z,47.81
2022-08-11T08:18:09.014Z,47.02
2022-08-11T08:20:39.088Z,46.29
2022-08-11T08:23:09.944Z,45.60
2022-08-11T08:25:41.879Z,46.17
2022-08-11T08:28:14.279Z,45.29
2022-08-11T08:30:48.544Z,45.81
2022-08-11T08:33:21.004Z,46.01
2022-08-11T08:35:54.457Z,46.16
2022-08-11T08:38:25.761Z,44.96
2022-08-11T08:40:56.829Z,43.59
2022-08-11T08:43:25.421Z,42.15
2022-08-11T08:45:57.520Z,43.37
2022-08-11T08:48:29.039Z,42.64
2022-08-11T08:51:22.026Z,42.03
2022-08-11T08:53:58.520Z,41.88
2022-08-11T08:56:30.412Z,41.76
2022-08-11T08:59:02.577Z,40.96
2022-08-11T09:01:34.980Z,40.60
2022-08-11T09:04:12.144Z,39.79
2022-08-11T09:06:43.948Z,39.15
2022-08-11T09:09:17.762Z,38.65
2022-08-11T09:11:54.603Z,38.26
2022-08-11T09:14:47.028Z,37.45
2022-08-11T09:17:15.769Z,35.61
2022-08-11T09:19:44.842Z,35.47
2022-08-11T09:22:38.485Z,34.99
2022-08-11T09:25:25.670Z,35.35
2022-08-11T09:27:56.732Z,34.74
2022-08-11T09:30:26.751Z,34.23
2022-08-11T09:32:58.113Z,33.86
2022-08-11T09:35:28.016Z,34.39
2022-08-11T09:38:15.137Z,33.81
2022-08-11T09:40:56.279Z,34.26
2022-08-11T09:43:47.189Z,33.02
2022-08-11T09:46:16.861Z,33.60
2022-08-11T09:48:47.794Z,34.22
2022-08-11T09:51:17.068Z,33.93
2022-08-11T09:53:47.073Z,33.37
2022-08-11T09:56:49.148Z,32.88
2022-08-11T09:59:20.765Z,32.53
2022-08-11T10:01:51.465Z,32.52
2022-08-11T10:04:24.693Z,32.54
2022-08-11T10:07:04.404Z,32.96
2022-08-11T10:09:40.104Z,32.44
2022-08-11T10:12:12.188Z,32.71
2022-08-11T10:15:04.382Z,31.95
2022-08-11T10:17:37.156Z,31.82
2022-08-11T10:20:10.460Z,30.86
2022-08-11T10:22:57.249Z,30.96
2022-08-11T10:25:43.208Z,31.75
2022-08-11T10:28:33.015Z,31.90
2022-08-11T10:31:22.673Z,32.16
2022-08-11T10:34:08.261Z,31.15
2022-08-11T10:36:52.511Z,31.18
2022-08-11T10:39:23.322Z,31.64
2022-08-11T10:42:13.263Z,31.30
2022-08-11T10:44:48.937Z,30.74
2022-08-11T10:47:36.849Z,30.26
2022-08-11T10:50:27.637Z,30.58
2022-08-11T10:53:15.290Z,31.13
2022-08-11T10:59:03.978Z,30.45
2022-08-11T11:01:38.872Z,29.43
2022-08-11T11:04:14.225Z,29.35
2022-08-11T11:06:52.106Z,29.19
2022-08-11T11:09:25.882Z,29.22
2022-08-11T11:12:18.096Z,29.08
2022-08-11T11:15:20.931Z,28.55
2022-08-11T11:18:02.570Z,29.14
2022-08-11T11:20:46.690Z,29.49
2022-08-11T11:23:20.140Z,29.19
2022-08-11T11:26:10.296Z,29.47
2022-08-11T11:29:13.270Z,29.45
2022-08-11T11:31:55.175Z,28.91
2022-08-11T11:34:53.082Z,28.25
2022-08-11T11:37:25.270Z,28.57
2022-08-11T11:39:55.614Z,28.66
2022-08-11T11:42:25.612Z,28.83
2022-08-11T11:44:56.361Z,28.12
2022-08-11T11:47:29.252Z,28.21
2022-08-11T11:49:58.579Z,28.63
2022-08-11T11:52:29.725Z,29.15
2022-08-11T11:55:00.550Z,29.36
2022-08-11T11:57:59.094Z,28.63
2022-08-11T12:00:49.213Z,28.34
2022-08-11T12:03:19.775Z,28.49
2022-08-11T12:05:49.841Z,28.95
2022-08-11T12:08:23.450Z,28.64
2022-08-11T12:11:17.451Z,29.10
2022-08-11T12:13:47.507Z,28.37
2022-08-11T12:16:33.300Z,28.29
2022-08-11T12:19:06.395Z,28.81
2022-08-11T12:21:38.007Z,28.22
2022-08-11T12:24:28.585Z,28.69
2022-08-11T12:27:17.851Z,28.39
2022-08-11T12:29:55.110Z,28.04
2022-08-11T12:32:28.980Z,28.14
2022-08-11T12:34:58.347Z,28.10
2022-08-11T12:37:34.529Z,27.48
2022-08-11T12:40:42.581Z,28.22
2022-08-11T12:43:38.280Z,26.83
2022-08-11T12:46:09.904Z,26.31
2022-08-11T12:49:02.542Z,26.13
2022-08-11T12:52:11.127Z,26.22
2022-08-11T12:54:52.470Z,26.42
2022-08-11T12:57:49.958Z,26.89
2022-08-11T13:00:37.430Z,27.21
2022-08-11T13:03:27.632Z,26.88
2022-08-11T13:05:59.306Z,27.22
2022-08-11T13:08:31.286Z,27.14
2022-08-11T13:11:19.217Z,27.26
2022-08-11T13:13:57.729Z,26.71
2022-08-11T13:16:30.943Z,25.74
2022-08-11T13:19:01.822Z,26.25
2022-08-11T13:21:31.735Z,25.57
2022-08-11T13:24:03.052Z,25.54
2022-08-11T13:26:47.579Z,25.86
2022-08-11T13:29:33.157Z,25.91
2022-08-11T13:32:02.299Z,26.12
2022-08-11T13:34:32.580Z,25.77
2022-08-11T13:37:02.758Z,25.09
2022-08-11T13:39:32.414Z,24.80
2022-08-11T13:42:03.169Z,25.17
2022-08-11T13:44:36.987Z,25.23
2022-08-11T13:47:08.537Z,25.76
2022-08-11T13:49:40.576Z,25.60
2022-08-11T13:52:13.174Z,25.92
2022-08-11T13:54:42.872Z,25.70
2022-08-11T13:58:06.232Z,25.45
2022-08-11T14:00:27.597Z,25.24
2022-08-11T14:02:59.264Z,25.21
2022-08-11T14:05:30.902Z,25.23
2022-08-11T14:08:02.784Z,25.64
2022-08-11T14:10:39.352Z,25.34
2022-08-11T14:13:29.104Z,25.71
2022-08-11T14:16:19.106Z,25.18
2022-08-11T14:18:50.798Z,25.12
2022-08-11T14:21:40.757Z,25.28
2022-08-11T14:24:11.834Z,24.66
2022-08-11T14:26:44.637Z,24.51
2022-08-11T14:29:15.560Z,24.40
2022-08-11T14:31:49.226Z,24.60
2022-08-11T14:34:21.428Z,24.69
2022-08-11T14:36:53.012Z,24.30
2022-08-11T14:39:24.636Z,24.44
2022-08-11T14:42:13.668Z,24.04
2022-08-11T14:45:07.538Z,24.34
2022-08-11T14:47:39.610Z,24.13
2022-08-11T14:50:14.092Z,24.16
2022-08-11T14:52:51.004Z,24.14
2022-08-11T14:55:39.232Z,23.41
2022-08-11T14:58:10.679Z,23.84
2022-08-11T15:00:41.265Z,24.33
2022-08-11T15:03:13.279Z,23.94
2022-08-11T15:05:56.981Z,24.28
2022-08-11T15:08:49.218Z,23.85
2022-08-11T15:11:37.688Z,23.37
2022-08-11T15:14:08.315Z,24.07
2022-08-11T15:16:56.164Z,24.42
2022-08-11T15:19:40.706Z,24.02
2022-08-11T15:22:30.338Z,23.54
2022-08-11T15:25:00.596Z,22.99
2022-08-11T15:27:49.183Z,23.61
2022-08-11T15:30:35.508Z,23.73
2022-08-11T15:33:24.853Z,23.43
2022-08-11T15:36:13.300Z,23.00
2022-08-11T15:38:44.703Z,22.28
2022-08-11T15:41:35.723Z,22.59
2022-08-11T15:44:59.012Z,22.18
2022-08-11T15:47:20.103Z,22.92
2022-08-11T15:50:10.558Z,22.86
2022-08-11T15:52:52.819Z,22.94
2022-08-11T15:55:24.785Z,22.84
2022-08-11T15:58:15.704Z,23.05
2022-08-11T16:01:08.927Z,22.74
2022-08-11T16:04:07.240Z,22.72
2022-08-11T16:06:56.597Z,23.13
2022-08-11T16:09:51.689Z,22.65
2022-08-11T16:12:24.705Z,23.53
2022-08-11T16:15:13.302Z,23.00
2022-08-11T16:17:44.560Z,23.57
2022-08-11T16:20:14.782Z,23.47
2022-08-11T16:22:55.458Z,23.31
2022-08-11T16:27:02.912Z,23.33
2022-08-11T16:28:26.682Z,23.43
2022-08-11T16:30:58.018Z,23.47
2022-08-11T16:33:50.101Z,23.34
2022-08-11T16:36:35.372Z,23.13
2022-08-11T16:39:05.696Z,23.22
2022-08-11T16:41:55.991Z,22.98
2022-08-11T16:44:44.359Z,23.17
2022-08-11T16:48:03.142Z,22.69
2022-08-11T16:50:09.564Z,22.95
2022-08-11T16:52:39.124Z,22.65
2022-08-11T16:55:10.110Z,22.99
2022-08-11T16:57:59.545Z,22.74
2022-08-11T17:00:30.269Z,22.98
2022-08-11T17:03:20.217Z,23.38
2022-08-11T17:06:09.822Z,23.39
2022-08-11T17:09:02.298Z,23.58
2022-08-11T17:11:54.207Z,23.53
2022-08-11T17:14:35.614Z,24.21
2022-08-11T17:17:05.810Z,24.30
2022-08-11T17:20:39.681Z,24.79
2022-08-11T17:22:42.988Z,24.92
2022-08-11T17:25:13.369Z,25.07
2022-08-11T17:27:44.816Z,25.28
2022-08-11T17:30:18.496Z,25.03
2022-08-11T17:33:08.119Z,25.18
2022-08-11T17:35:44.733Z,25.50
2022-08-11T17:38:16.435Z,25.46
2022-08-11T17:41:02.760Z,26.37
2022-08-11T17:43:49.075Z,26.47
2022-08-11T17:46:37.614Z,26.76
2022-08-11T17:49:08.377Z,27.08
2022-08-11T17:51:58.433Z,27.28
2022-08-11T17:54:45.691Z,27.88
2022-08-11T17:57:33.696Z,27.09
2022-08-11T18:00:04.529Z,27.70
2022-08-11T18:02:55.156Z,27.41
2022-08-11T18:05:26.969Z,27.99
2022-08-11T18:08:14.987Z,27.55
2022-08-11T18:11:01.878Z,27.77
2022-08-11T18:13:51.889Z,27.63
2022-08-11T18:16:40.369Z,27.72
2022-08-11T18:19:30.706Z,27.59
2022-08-11T18:22:24.393Z,27.93
2022-08-11T18:25:17.283Z,27.92
2022-08-11T18:28:05.556Z,28.13
2022-08-11T18:31:03.436Z,28.65
2022-08-11T18:34:06.970Z,28.25
2022-08-11T18:37:07.351Z,28.62
2022-08-11T18:39:56.601Z,28.59
2022-08-11T18:42:43.528Z,29.38
2022-08-11T18:45:35.804Z,29.21
2022-08-11T18:48:37.437Z,29.53
2022-08-11T18:51:36.211Z,29.57
2022-08-11T18:54:27.624Z,29.97
2022-08-11T18:57:17.916Z,29.86
2022-08-11T19:00:05.727Z,30.14
2022-08-11T19:02:55.851Z,30.29
2022-08-11T19:06:33.693Z,30.99
2022-08-11T19:08:58.367Z,30.75
2022-08-11T19:11:48.669Z,31.30
2022-08-11T19:14:37.644Z,31.64
2022-08-11T19:17:45.126Z,32.23
2022-08-11T19:20:35.495Z,32.15
2022-08-11T19:23:23.834Z,32.50
2022-08-11T19:26:09.996Z,32.34
2022-08-11T19:29:00.507Z,33.04
2022-08-11T19:31:50.290Z,32.66
2022-08-11T19:34:38.878Z,33.24
2022-08-11T19:37:26.166Z,33.19
2022-08-11T19:40:13.949Z,32.71
2022-08-11T19:43:01.805Z,33.02
2022-08-11T19:45:54.465Z,33.37
2022-08-11T19:48:44.429Z,33.16
2022-08-11T19:51:34.324Z,33.29
2022-08-11T19:54:21.786Z,34.57
2022-08-11T19:57:10.105Z,34.16
2022-08-11T19:59:57.787Z,34.21
2022-08-11T20:02:47.837Z,34.54
2022-08-11T20:05:34.902Z,34.39
2022-08-11T20:08:22.026Z,34.70
2022-08-11T20:11:10.995Z,35.08
2022-08-11T20:14:02.346Z,35.76
2022-08-11T20:16:50.204Z,35.50
2022-08-11T20:19:56.619Z,35.42
2022-08-11T20:22:45.180Z,35.84
2022-08-11T20:25:32.937Z,36.11
2022-08-11T20:28:19.921Z,36.08
2022-08-11T20:31:06.072Z,36.07
2022-08-11T20:33:53.075Z,36.86
2022-08-11T20:36:40.717Z,36.96
2022-08-11T20:39:29.141Z,36.93
2022-08-11T20:42:17.063Z,37.14
2022-08-11T20:45:03.770Z,37.55
2022-08-11T20:47:59.061Z,37.86
2022-08-11T20:50:47.957Z,37.96
2022-08-11T20:53:40.612Z,38.17
2022-08-11T20:56:28.749Z,38.22
2022-08-11T20:59:18.331Z,38.64
2022-08-11T21:02:10.036Z,38.86
2022-08-11T21:04:57.568Z,38.71
2022-08-11T21:07:55.386Z,38.82
2022-08-11T21:10:47.266Z,38.71
2022-08-11T21:13:39.410Z,38.80
2022-08-11T21:16:27.688Z,39.28
2022-08-11T21:19:55.156Z,39.46
2022-08-11T21:22:28.192Z,39.35
2022-08-11T21:25:16.305Z,39.63
2022-08-11T21:28:05.137Z,40.14
2022-08-11T21:30:57.786Z,41.17
2022-08-11T21:33:46.235Z,41.28
2022-08-11T21:36:34.136Z,41.53
2022-08-11T21:39:24.932Z,41.48
2022-08-11T21:42:12.615Z,41.44
2022-08-11T21:45:01.748Z,41.92
2022-08-11T21:47:48.012Z,41.76
2022-08-11T21:50:33.962Z,41.71
2022-08-11T21:53:20.675Z,42.21
2022-08-11T21:56:11.042Z,42.66
2022-08-11T21:59:06.831Z,43.03
2022-08-11T22:01:55.464Z,43.40
2022-08-11T22:04:43.995Z,43.59
2022-08-11T22:07:34.396Z,43.92
2022-08-11T22:10:41.134Z,43.68
2022-08-11T22:13:31.032Z,44.23
2022-08-11T22:16:19.828Z,44.16
2022-08-11T22:19:09.748Z,44.04
2022-08-11T22:22:01.511Z,44.33
2022-08-11T22:24:51.907Z,44.40
2022-08-11T22:27:37.813Z,44.36
2022-08-11T22:30:25.136Z,44.88
2022-08-11T22:33:12.297Z,44.84
2022-08-11T22:36:04.135Z,45.32
2022-08-11T22:38:51.286Z,46.39
2022-08-11T22:41:37.360Z,46.94
2022-08-11T22:44:23.856Z,47.01
2022-08-11T22:47:10.765Z,46.56
2022-08-11T22:49:59.181Z,46.03
2022-08-11T22:52:47.427Z,46.09
2022-08-11T22:55:34.139Z,45.95
2022-08-11T22:58:21.029Z,45.65
2022-08-11T23:01:07.518Z,46.37
2022-08-11T23:03:53.826Z,48.75
2022-08-11T23:06:41.419Z,48.25
2022-08-11T23:09:29.097Z,47.82
2022-08-11T23:12:16.440Z,48.46
2022-08-11T23:15:03.487Z,49.94
2022-08-11T23:17:50.397Z,52.33
2022-08-11T23:20:41.539Z,51.73
2022-08-11T23:23:30.987Z,51.52
2022-08-11T23:26:20.796Z,51.14
2022-08-11T23:29:06.587Z,51.71
2022-08-11T23:31:54.020Z,52.59
2022-08-11T23:35:03.710Z,53.05
2022-08-11T23:37:51.124Z,52.66
2022-08-11T23:40:37.503Z,53.77
2022-08-11T23:43:26.178Z,53.84
2022-08-11T23:46:11.999Z,54.10
2022-08-11T23:48:58.301Z,54.30
2022-08-11T23:51:46.799Z,55.34
2022-08-11T23:54:37.393Z,56.31
2022-08-11T23:57:23.946Z,56.97
